默认 日期 大小 文件数 浏览量 最新下载 xml
prague磁力链接相关资源由用户搜索指令自动获取,结果来源于网络,本站不存储任何资料,亦不承担任何责任,请于24小时内删除,搜索到1960个磁力,用时2ms。
    {"1.jpg": 369482, "front.jpg": 65938, "gush.pregnant.in.prague.3.mp4": 2987319958, "gush.pregnant.in.prague.3.720p.nfo": 9144}
创建时间: 2018-12-12 15:09:12 大小:2.78 GB 文件数量:4 热度:24 最近下载:2025-06-18 03:06:02
    {"RARBG.txt": 30, "strandedteens.18.08.16.sicilia.a.night.in.prague.mp4": 3000113925, "strandedteens.18.08.16.sicilia.a.night.in.prague.nfo": 5206}
创建时间: 2018-12-12 23:11:10 大小:2.79 GB 文件数量:3 热度:26 最近下载:2025-03-01 15:43:03
    {"Pregnant In Prague 21.wmv": 613330224, "Pregnant In Prague 22.wmv": 699830208, "Pregnant In Prague 23.wmv": 458880432, "Pregnant In Prague 24.wmv": 608632780}
创建时间: 2018-12-13 05:05:21 大小:2.22 GB 文件数量:4 热度:13 最近下载:2024-10-04 23:57:01
    {"simivip01.jpg": 109772, "simivip01001.jpg": 537735, "simivip01002.jpg": 502898, "simivip01003.jpg": 615669, "simivip01004.jpg": 460988, "simivip01005.jpg": 504165, "simivip01006.jpg": 441373, "simivip01007.jpg": 598232, "simivip01008.jpg": 896089, " ...
创建时间: 2018-12-13 08:20:26 大小:29.66 MB 文件数量:55 热度:12 最近下载:2025-10-04 01:45:01
    {"VIDEO_TS.BUP": 14336, "VIDEO_TS.IFO": 14336, "VIDEO_TS.VOB": 15378432, "VTS_01_0.BUP": 55296, "VTS_01_0.IFO": 55296, "VTS_01_0.VOB": 14929920, "VTS_01_1.VOB": 1073739776, "VTS_01_2.VOB": 1073739776, "VTS_01_3.VOB": 1073739776, "VTS_01_4.VOB": 1073739776, ...
创建时间: 2018-12-13 08:53:00 大小:4.35 GB 文件数量:19 热度:8 最近下载:2025-04-04 14:37:03
    {"RARBG.com.txt": 34, "sart.15.10.02.cristal.caitlin.and.elisa.b.secrets.of.prague.mp4": 1429040619, "sart.15.10.02.cristal.caitlin.and.elisa.b.secrets.of.prague.nfo": 5212}
创建时间: 2018-12-13 10:00:01 大小:1.33 GB 文件数量:3 热度:26 最近下载:2025-10-05 14:57:02
    ... ": 6276601, " 09. The City Of Prague Philharmonic Orchestra - Spacewalk (From Passengers ... 21166295, " 04. The City Of Prague Philharmonic Orchestra - Roar! (From Cloverfield ... 4266170, " 27. The City Of Prague Philharmonic Orchestra - Also Sprach Zarathustra ...
创建时间: 2018-12-13 13:55:52 大小:1023.29 MB 文件数量:101 热度:12 最近下载:2025-01-03 04:02:03
    {"RARBG.com.txt": 34, "xlg.13.05.06.charlotte.c.natural.bra-busters.of.prague.nfo": 6993, "xlg.13.05.06.charlotte.c.natural.bra-busters.of.prague.wmv": 430690396}
创建时间: 2018-12-13 18:04:47 大小:410.75 MB 文件数量:3 热度:13 最近下载:2025-04-04 14:49:03
    {"CD1": {"roccos.reality.in.prague.disc2.xxx.dvdrip.xvid-jiggly- ... ": 733476864}, "CD2": {"roccos.reality.in.prague.disc2.xxx.dvdrip.xvid-jiggly ... ": 733749248}, "CD3": {"roccos.reality.in.prague.disc2.xxx.dvdrip.xvid-jiggly ...
创建时间: 2018-12-14 02:13:41 大小:2.06 GB 文件数量:6 热度:6 最近下载:2024-10-28 12:08:01
    {"Pregnant In Prague 3.mp4": 2987319958, "Pregnant In Prague 3.mp4.jpg": 518168, "f3679eb1aadf18af661529sd38f7d530e.jpg": 355481}
创建时间: 2018-12-14 12:37:15 大小:2.78 GB 文件数量:3 热度:26 最近下载:2025-06-18 03:06:01
    {"CD 1": {"Cover.jpg": 416842, "01. Inception - Time (Feat. Steve Mazzaro).mp3": 11026994, "03. The Pacific - Honor (Feat. James Fitzpatrick).mp3": 7177604, "05. Angels & Demons - 160 BPM (Feat. Steve Mazzaro).mp3": 16224335, "13. King Arthur - Woad To ...
创建时间: 2018-12-14 20:36:17 大小:322.67 MB 文件数量:34 热度:7 最近下载:2025-02-26 12:53:02
    {"Cover.jpg": 115690, "11. Она.mp3": 13937455, "05. Блюз 16+.mp3": 10306431, "09. Сердце.mp3": 12258707, "01. Молитва.mp3": 13356997, "02. Хипстер.mp3": 9986965, "06. Компромисс.mp3": 10548643, "03. Забрали в армию.mp3": 11913161, "10. Бездорожье (feat. ...
创建时间: 2018-12-14 22:32:32 大小:132.71 MB 文件数量:13 热度:5 最近下载:2022-04-23 05:55:22
    {"gagvid.nfo": 331, "RARBG.com.txt": 34, "Holly-Randall_2013-11-02_Prague-BTS-2013-Part-1_Holly-Randall--Miela_by_Holly-Randall-1080.mp4": 191782566}
创建时间: 2018-12-15 06:03:55 大小:182.9 MB 文件数量:3 热度:10 最近下载:2024-12-28 02:54:01
    {"www.Torrenting.com.txt": 382, "First Read This Guide.txt": 382, "stacey.dooley.investigates.sex.stags.and.prague.pdtv.x264-c4tv.mp4": 594686221, "stacey.dooley.investigates.sex.stags.and.prague.pdtv.x264-c4tv.nfo": 1710}
创建时间: 2018-12-15 10:12:06 大小:567.14 MB 文件数量:4 热度:15 最近下载:2025-09-17 07:04:13
    {"Torrent Downloaded From ArenaBG.ch.txt": 0, "pba_georgie_lyall_RU050718_480p_1500.mp4": 357044480}
创建时间: 2018-12-15 16:03:25 大小:340.5 MB 文件数量:2 热度:50 最近下载:2025-04-11 12:20:02
    {"DISC 1": {"03. Over Hill (An Unexpected Journey).flac": 16704537, "01. Old Friends (An Unexpected Journey).flac": 24359705, "10. Kingsfoil (The Desolation of Smaug).flac": 11142114, "11. I See Fire (The Desolation of Smaug).flac": 17480429, "02. Misty ...
创建时间: 2018-12-15 21:12:02 大小:689.71 MB 文件数量:33 热度:9 最近下载:2025-08-03 16:09:08
    {"[DDFBusty] Suzie, Krystal Swift (One Night In Prague - A Busty New Face’s Threesome Debut).mp4": 265572129}
创建时间: 2018-12-15 22:02:58 大小:253.27 MB 文件数量:1 热度:23 最近下载:2025-08-15 17:59:02
    {"RARBG.com.txt": 34, "babes.14.06.20.lucy.li.memories.of.prague.mp4": 1524037171, "babes.14.06.20.lucy.li.memories.of.prague.nfo": 6975}
创建时间: 2018-12-16 01:57:37 大小:1.42 GB 文件数量:3 热度:57 最近下载:2025-10-04 12:49:02
    {"Free Games.txt": 56, "The Most Trusted VPN.txt": 207, "Torrent Seed by www.Cyber-Planet.in.txt": 517, "Torrent Downloaded From ExtraTorrent.cc.txt": 351, "Penthouse Euro Adventures Sex In Prague XXX 2014 HDTV 720p x264-SHDXXX.mkv": 2306895606}
创建时间: 2018-12-16 06:56:09 大小:2.15 GB 文件数量:5 热度:9 最近下载:2025-04-04 14:46:02
    {"Amateurs - Max.mp4": 174681181}
创建时间: 2018-12-16 11:10:23 大小:166.59 MB 文件数量:1 热度:24 最近下载:2025-08-05 22:18:02